Time;durP1;ratioP1;P1;durP2;ratioP2;P2;SDS_P1;SDS_P2;PMS_P1;PMS_P2;Temp;Humidity;BMP_temperature;BMP_pressure;BME280_temperature;BME280_humidity;BME280_pressure;Samples;Min_cycle;Max_cycle;Signal;HPM_P1;HPM_P2
2023/09/29 00:00:15;;;;;;;6.23;3.70;;;22.70;61.10;;;;;;5012790;28;20192;-71
2023/09/29 00:02:43;;;;;;;5.93;3.97;;;22.90;60.20;;;;;;5011180;28;20260;-72
2023/09/29 00:05:11;;;;;;;4.67;3.87;;;23.10;59.00;;;;;;5010554;28;20189;-75
2023/09/29 00:07:38;;;;;;;30.73;5.37;;;23.10;58.30;;;;;;5010717;28;20189;-72
2023/09/29 00:10:09;;;;;;;10.73;4.50;;;23.00;58.40;;;;;;5014234;28;20209;-70
2023/09/29 00:12:38;;;;;;;7.50;3.57;;;23.20;56.80;;;;;;5013185;28;20695;-70
2023/09/29 00:15:07;;;;;;;5.60;3.70;;;23.30;56.10;;;;;;5012556;28;20177;-69
2023/09/29 00:17:35;;;;;;;5.83;4.30;;;23.50;56.30;;;;;;5011036;28;20188;-70
2023/09/29 00:20:24;;;;;;;6.13;4.10;;;23.70;56.60;;;;;;5012098;28;20173;-73
2023/09/29 00:22:54;;;;;;;4.27;3.53;;;23.80;56.20;;;;;;5011660;28;20228;-71
2023/09/29 00:25:25;;;;;;;6.73;4.27;;;24.00;55.00;;;;;;5012396;28;20665;-70
2023/09/29 00:27:53;;;;;;;6.63;3.80;;;24.20;54.00;;;;;;5012245;28;20211;-70
2023/09/29 00:30:21;;;;;;;5.77;3.80;;;24.10;53.80;;;;;;5012414;28;20235;-71
2023/09/29 00:32:50;;;;;;;5.73;4.07;;;24.00;52.90;;;;;;5011430;28;20683;-70
2023/09/29 00:35:24;;;;;;;6.53;3.60;;;24.20;54.00;;;;;;5012066;28;20742;-71
2023/09/29 00:37:52;;;;;;;7.40;3.60;;;24.30;52.50;;;;;;5010684;28;20176;-70
2023/09/29 00:40:20;;;;;;;5.50;3.47;;;24.50;51.70;;;;;;5010982;28;20205;-71
2023/09/29 00:42:48;;;;;;;5.20;3.50;;;24.70;49.80;;;;;;5013111;28;20254;-70
2023/09/29 00:45:25;;;;;;;3.47;3.07;;;24.80;47.80;;;;;;5011156;28;20538;-70
2023/09/29 00:47:56;;;;;;;3.53;3.07;;;25.00;47.10;;;;;;5011719;28;20172;-70
2023/09/29 00:50:28;;;;;;;5.53;3.53;;;25.10;45.90;;;;;;5009356;28;20255;-70
2023/09/29 00:52:59;;;;;;;4.20;3.23;;;25.20;46.70;;;;;;5007420;28;20248;-70
2023/09/29 00:55:29;;;;;;;9.03;3.90;;;25.20;48.00;;;;;;5009894;28;20636;-72
2023/09/29 00:57:58;;;;;;;4.83;3.43;;;25.30;46.20;;;;;;5009147;28;20192;-71
2023/09/29 01:03:04;;;;;;;4.80;3.50;;;25.50;46.10;;;;;;5011029;28;20525;-70
2023/09/29 01:05:45;;;;;;;4.57;3.70;;;25.60;47.30;;;;;;5006382;28;20173;-71
2023/09/29 01:08:22;;;;;;;5.93;3.73;;;25.80;46.80;;;;;;5010631;28;20639;-70
2023/09/29 01:10:54;;;;;;;4.67;3.43;;;26.00;46.70;;;;;;5011762;28;20177;-78
2023/09/29 01:13:22;;;;;;;6.00;3.80;;;26.20;45.70;;;;;;5008867;28;20239;-71
2023/09/29 01:15:50;;;;;;;6.30;3.53;;;26.30;44.30;;;;;;5012086;28;20185;-73
2023/09/29 01:18:17;;;;;;;5.67;3.27;;;26.30;43.70;;;;;;5010173;28;20212;-72
2023/09/29 01:20:45;;;;;;;6.93;3.60;;;26.40;43.40;;;;;;5013328;28;20243;-70
2023/09/29 01:23:12;;;;;;;6.43;3.77;;;26.50;43.60;;;;;;5011632;28;20257;-71
2023/09/29 01:25:40;;;;;;;7.63;3.53;;;26.70;42.80;;;;;;5012113;28;21156;-71
2023/09/29 01:28:09;;;;;;;6.37;3.47;;;26.70;42.80;;;;;;5010127;28;20181;-69
2023/09/29 01:30:37;;;;;;;4.23;3.43;;;26.50;43.00;;;;;;5012234;28;20185;-71
2023/09/29 01:33:05;;;;;;;7.13;3.40;;;26.80;41.40;;;;;;5012045;28;20559;-72
2023/09/29 01:35:32;;;;;;;5.53;3.43;;;26.90;40.80;;;;;;5011979;28;20648;-72
2023/09/29 01:38:00;;;;;;;5.90;3.47;;;26.90;40.50;;;;;;5012030;28;20229;-72
2023/09/29 01:40:28;;;;;;;6.03;3.43;;;27.10;39.70;;;;;;5012286;28;20211;-69
2023/09/29 01:42:58;;;;;;;6.27;3.10;;;27.30;39.00;;;;;;5010609;28;20240;-70
2023/09/29 01:45:27;;;;;;;7.07;3.93;;;27.60;38.30;;;;;;5007911;28;20196;-70
2023/09/29 01:47:54;;;;;;;7.73;3.50;;;27.80;38.40;;;;;;5011582;28;20196;-71
2023/09/29 01:50:22;;;;;;;6.50;3.97;;;28.00;38.90;;;;;;5012235;28;20205;-71
2023/09/29 01:52:50;;;;;;;6.43;3.70;;;28.30;36.20;;;;;;5011704;28;20256;-70
2023/09/29 01:55:24;;;;;;;6.87;4.13;;;28.30;34.40;;;;;;5010319;28;20182;-70
2023/09/29 01:57:57;;;;;;;5.07;3.80;;;28.70;34.30;;;;;;5013338;28;20875;-72
2023/09/29 02:00:25;;;;;;;6.97;3.57;;;28.60;34.40;;;;;;5014436;28;20663;-72
2023/09/29 02:02:54;;;;;;;5.40;3.70;;;28.90;37.40;;;;;;5015109;28;20195;-71
2023/09/29 02:05:21;;;;;;;7.57;4.23;;;29.10;39.60;;;;;;5014219;28;20497;-70
2023/09/29 02:07:49;;;;;;;10.13;4.20;;;28.80;42.10;;;;;;5015708;28;20670;-69
2023/09/29 02:10:22;;;;;;;8.63;4.07;;;28.60;42.90;;;;;;5015511;28;20213;-73
2023/09/29 02:12:58;;;;;;;9.90;4.60;;;28.40;44.20;;;;;;5014129;28;20721;-72
2023/09/29 02:15:28;;;;;;;10.77;4.87;;;28.60;43.60;;;;;;5015602;28;20644;-70
2023/09/29 02:17:55;;;;;;;9.50;4.80;;;28.40;44.90;;;;;;5014156;28;20181;-71
2023/09/29 02:20:28;;;;;;;25.63;6.63;;;27.80;47.40;;;;;;5015408;28;20542;-70
2023/09/29 02:22:57;;;;;;;9.87;4.60;;;27.90;48.00;;;;;;5014835;28;20568;-70
2023/09/29 02:25:28;;;;;;;13.87;5.77;;;27.80;48.70;;;;;;5014977;28;20186;-70
2023/09/29 02:27:59;;;;;;;22.63;6.73;;;27.80;49.50;;;;;;5015036;28;20181;-69
2023/09/29 02:30:28;;;;;;;13.63;6.03;;;27.60;50.40;;;;;;5014545;28;20489;-71
2023/09/29 02:32:56;;;;;;;17.27;5.83;;;27.70;50.50;;;;;;5014550;28;20217;-70
2023/09/29 02:35:23;;;;;;;11.97;5.60;;;27.60;50.90;;;;;;5013908;28;20185;-69
2023/09/29 02:37:52;;;;;;;14.37;6.07;;;27.70;50.80;;;;;;5014858;28;20208;-73
2023/09/29 02:40:19;;;;;;;15.10;5.67;;;27.80;49.80;;;;;;5015136;28;20185;-70
2023/09/29 02:42:47;;;;;;;12.17;4.93;;;27.50;51.00;;;;;;5014983;28;20181;-70
2023/09/29 02:45:14;;;;;;;11.83;5.80;;;27.60;51.50;;;;;;5015087;28;20227;-70
2023/09/29 02:47:47;;;;;;;16.20;5.60;;;27.80;50.10;;;;;;5014036;28;20601;-70
2023/09/29 02:50:14;;;;;;;16.57;6.33;;;27.90;49.80;;;;;;5014378;28;20189;-69
2023/09/29 02:52:42;;;;;;;9.97;6.23;;;27.80;50.10;;;;;;5013198;28;20201;-70
2023/09/29 02:55:14;;;;;;;12.27;6.00;;;27.90;50.30;;;;;;5013032;28;20197;-70
2023/09/29 02:57:42;;;;;;;10.27;6.40;;;27.80;50.10;;;;;;5014079;28;20280;-69
2023/09/29 03:00:15;;;;;;;16.37;5.57;;;27.90;49.70;;;;;;5014089;28;20541;-70
2023/09/29 03:02:43;;;;;;;8.03;5.27;;;28.50;48.60;;;;;;5012207;28;20197;-70
2023/09/29 03:05:11;;;;;;;21.50;6.47;;;28.70;47.10;;;;;;5013581;28;20177;-69
2023/09/29 03:07:39;;;;;;;11.73;5.77;;;28.30;48.70;;;;;;5013452;28;20188;-71
2023/09/29 03:10:06;;;;;;;11.27;5.47;;;28.30;48.00;;;;;;5013253;28;20177;-72
2023/09/29 03:19:19;;;;;;;10.23;5.80;;;28.50;46.60;;;;;;5009446;28;20679;-72
2023/09/29 03:21:48;;;;;;;14.33;5.77;;;28.80;46.40;;;;;;5013473;28;20247;-71
2023/09/29 03:24:16;;;;;;;8.50;5.27;;;29.30;45.40;;;;;;5012157;28;20600;-72
2023/09/29 03:26:45;;;;;;;10.90;5.43;;;29.10;45.40;;;;;;5008738;28;20606;-70
2023/09/29 03:29:12;;;;;;;13.70;5.80;;;29.10;44.70;;;;;;5013750;28;20659;-74
2023/09/29 03:31:39;;;;;;;10.67;5.40;;;28.70;46.00;;;;;;5012799;28;20216;-73
2023/09/29 03:34:07;;;;;;;10.63;5.65;;;29.40;44.70;;;;;;5013327;28;20228;-72
2023/09/29 03:36:34;;;;;;;10.77;5.67;;;29.90;43.00;;;;;;5013083;28;20615;-71
2023/09/29 03:39:05;;;;;;;13.15;5.15;;;30.20;40.80;;;;;;5013329;28;20189;-73
2023/09/29 03:41:33;;;;;;;12.50;5.20;;;30.20;41.90;;;;;;5012908;28;20596;-71
2023/09/29 03:44:01;;;;;;;14.40;5.68;;;29.70;42.30;;;;;;5013132;28;20268;-73
2023/09/29 03:46:29;;;;;;;21.10;5.72;;;29.70;42.10;;;;;;5012514;28;20394;-73
2023/09/29 03:48:56;;;;;;;8.73;4.88;;;30.30;41.50;;;;;;5013211;28;20533;-73
2023/09/29 03:51:27;;;;;;;6.07;4.13;;;30.40;39.50;;;;;;5044260;28;20185;-71
2023/09/29 03:53:57;;;;;;;6.75;4.95;;;29.90;39.70;;;;;;5013377;28;20292;-74
2023/09/29 03:56:25;;;;;;;11.98;4.85;;;30.30;39.70;;;;;;5011311;28;20236;-73
2023/09/29 03:58:56;;;;;;;10.60;5.35;;;30.10;38.70;;;;;;5013883;28;20188;-71
2023/09/29 04:01:23;;;;;;;8.90;4.60;;;30.70;38.60;;;;;;5012404;28;20232;-72
2023/09/29 04:03:50;;;;;;;11.75;4.85;;;30.00;39.30;;;;;;5006172;28;20227;-75
2023/09/29 04:06:18;;;;;;;10.07;4.80;;;30.20;38.40;;;;;;5011905;28;20220;-73
2023/09/29 04:08:47;;;;;;;9.73;4.63;;;29.90;38.40;;;;;;5013245;28;20189;-73
2023/09/29 04:11:14;;;;;;;9.05;4.25;;;30.60;38.20;;;;;;5013130;28;20213;-70
2023/09/29 04:13:43;;;;;;;9.73;4.00;;;30.60;36.20;;;;;;5012748;28;20215;-73
2023/09/29 04:16:12;;;;;;;5.40;3.63;;;30.40;35.10;;;;;;5012866;28;20192;-74
2023/09/29 04:18:40;;;;;;;9.93;4.05;;;29.90;35.60;;;;;;5011605;28;20193;-74
2023/09/29 04:21:15;;;;;;;4.45;4.05;;;30.20;35.30;;;;;;5013057;28;20232;-76
2023/09/29 04:23:43;;;;;;;7.68;3.80;;;30.40;36.10;;;;;;5012116;28;20266;-73
2023/09/29 04:26:21;;;;;;;6.82;3.80;;;30.60;35.60;;;;;;5013348;28;20247;-74
2023/09/29 04:28:52;;;;;;;6.80;3.88;;;30.50;36.00;;;;;;5005352;28;20200;-72
2023/09/29 04:31:20;;;;;;;7.50;4.40;;;30.30;36.70;;;;;;5011280;28;20193;-71
2023/09/29 04:33:47;;;;;;;3.70;3.22;;;30.10;36.80;;;;;;5013132;28;20215;-72
2023/09/29 04:36:15;;;;;;;5.57;3.67;;;31.20;35.40;;;;;;5003621;28;20538;-72
2023/09/29 04:38:42;;;;;;;5.55;3.67;;;31.10;36.10;;;;;;5013144;28;20264;-73
2023/09/29 04:41:10;;;;;;;5.05;3.15;;;30.30;36.60;;;;;;5012854;28;20185;-70
2023/09/29 04:43:37;;;;;;;9.73;3.80;;;30.30;37.30;;;;;;5012812;28;20185;-74
2023/09/29 04:46:04;;;;;;;6.63;3.85;;;30.50;37.20;;;;;;5012896;28;20250;-72
2023/09/29 04:48:32;;;;;;;7.22;4.03;;;29.90;37.30;;;;;;5012475;28;20188;-73
2023/09/29 04:51:00;;;;;;;7.88;4.00;;;30.00;37.90;;;;;;5012367;28;20212;-71
2023/09/29 04:53:27;;;;;;;6.43;4.00;;;30.00;38.00;;;;;;5011350;28;20577;-75
2023/09/29 04:55:55;;;;;;;10.30;4.00;;;29.80;38.40;;;;;;5012578;28;20165;-74
2023/09/29 04:58:23;;;;;;;7.05;3.72;;;30.60;37.50;;;;;;5012618;28;20212;-74
2023/09/29 05:00:50;;;;;;;6.88;3.60;;;31.30;36.40;;;;;;5012212;28;20199;-73
2023/09/29 05:03:18;;;;;;;7.18;3.58;;;31.50;36.40;;;;;;5011958;28;20218;-73
2023/09/29 05:05:47;;;;;;;7.72;3.70;;;31.70;36.70;;;;;;5011788;28;20216;-72
2023/09/29 05:08:15;;;;;;;7.13;4.05;;;31.60;37.00;;;;;;5011649;28;20199;-71
2023/09/29 05:10:43;;;;;;;7.05;3.90;;;31.30;37.60;;;;;;5012563;28;20181;-71
2023/09/29 05:13:15;;;;;;;5.35;3.60;;;31.40;38.70;;;;;;5012517;28;20224;-71
2023/09/29 05:15:42;;;;;;;10.13;3.88;;;31.80;37.70;;;;;;5012697;28;20265;-73
2023/09/29 05:18:10;;;;;;;7.78;3.30;;;31.60;36.70;;;;;;5010725;28;20192;-73
2023/09/29 05:20:37;;;;;;;7.35;3.85;;;31.60;37.00;;;;;;5013246;28;20627;-69
2023/09/29 05:23:04;;;;;;;6.93;3.38;;;30.50;38.10;;;;;;5012030;28;20256;-71
2023/09/29 05:25:32;;;;;;;5.68;3.90;;;29.70;41.10;;;;;;5010364;28;20260;-72
2023/09/29 05:27:59;;;;;;;6.28;4.20;;;29.40;43.30;;;;;;5011056;28;20191;-70
2023/09/29 05:30:27;;;;;;;7.63;4.22;;;28.90;46.40;;;;;;5009604;28;20176;-73
2023/09/29 05:32:54;;;;;;;5.95;4.38;;;29.80;44.40;;;;;;5013991;28;20300;-70
2023/09/29 05:35:21;;;;;;;4.97;4.32;;;29.10;44.90;;;;;;5015659;28;20264;-73
2023/09/29 05:37:50;;;;;;;5.57;4.10;;;29.20;45.40;;;;;;5009128;28;20208;-73
2023/09/29 05:40:17;;;;;;;6.78;3.95;;;29.20;46.00;;;;;;5014486;28;20185;-75
2023/09/29 05:42:44;;;;;;;5.10;3.90;;;28.20;48.90;;;;;;5015158;28;20264;-71
2023/09/29 05:45:12;;;;;;;4.68;3.65;;;28.50;47.40;;;;;;5014936;28;20203;-71
2023/09/29 05:47:39;;;;;;;4.57;3.28;;;28.80;46.90;;;;;;5014541;28;20575;-71
2023/09/29 05:50:07;;;;;;;6.93;3.00;;;29.00;45.10;;;;;;5015079;28;20234;-74
2023/09/29 05:52:35;;;;;;;4.65;3.25;;;29.40;42.70;;;;;;5015710;28;20304;-71
2023/09/29 05:55:02;;;;;;;5.15;2.95;;;29.80;41.20;;;;;;5015641;28;20181;-71
2023/09/29 05:57:30;;;;;;;5.25;2.70;;;30.10;39.70;;;;;;5012935;28;20189;-70
2023/09/29 05:59:57;;;;;;;4.47;2.55;;;30.00;39.30;;;;;;5015841;28;20181;-72
2023/09/29 06:02:24;;;;;;;5.85;3.13;;;29.20;40.10;;;;;;5012183;28;20212;-69
2023/09/29 06:04:52;;;;;;;4.07;2.58;;;29.50;40.00;;;;;;5013735;28;20185;-71
2023/09/29 06:07:19;;;;;;;3.10;2.42;;;29.30;40.90;;;;;;5021141;28;20504;-71
2023/09/29 06:09:46;;;;;;;5.22;3.13;;;29.20;41.50;;;;;;5015713;28;20217;-73
2023/09/29 06:12:14;;;;;;;6.78;3.78;;;28.60;43.10;;;;;;5015688;28;20169;-72
2023/09/29 06:14:41;;;;;;;4.05;3.35;;;28.00;43.30;;;;;;5015607;28;20193;-71
2023/09/29 06:17:08;;;;;;;5.50;3.50;;;28.10;41.70;;;;;;5015295;28;20181;-72
2023/09/29 06:19:36;;;;;;;5.82;3.28;;;28.30;41.00;;;;;;5015249;28;20523;-70
2023/09/29 06:22:04;;;;;;;3.80;3.27;;;28.30;38.80;;;;;;5017785;28;20176;-72
2023/09/29 06:24:32;;;;;;;4.83;2.90;;;27.60;40.40;;;;;;5017788;28;20237;-74
2023/09/29 06:26:59;;;;;;;6.27;3.53;;;28.00;39.50;;;;;;5015309;28;20182;-71
2023/09/29 06:29:26;;;;;;;6.97;3.27;;;27.80;40.20;;;;;;5015123;28;20659;-70
2023/09/29 06:31:54;;;;;;;4.45;3.20;;;28.50;37.70;;;;;;5015104;28;20698;-69
2023/09/29 06:34:21;;;;;;;3.90;3.17;;;28.80;37.20;;;;;;5015167;28;20267;-71
2023/09/29 06:36:48;;;;;;;5.63;3.50;;;29.10;37.50;;;;;;5015486;28;20213;-69
2023/09/29 06:39:16;;;;;;;5.57;3.20;;;29.20;36.90;;;;;;5015551;28;20189;-70
2023/09/29 06:41:43;;;;;;;6.75;3.17;;;29.30;37.40;;;;;;5014941;28;20185;-71
2023/09/29 06:44:11;;;;;;;3.67;3.00;;;29.20;38.20;;;;;;5013289;28;20653;-72
2023/09/29 06:46:38;;;;;;;6.30;3.73;;;29.30;38.90;;;;;;5014902;28;20602;-73
2023/09/29 06:49:05;;;;;;;5.53;3.57;;;28.40;41.90;;;;;;5014843;28;20647;-70
2023/09/29 06:51:33;;;;;;;6.07;3.13;;;28.20;42.90;;;;;;5014045;28;20189;-74
2023/09/29 06:54:01;;;;;;;5.53;3.73;;;28.00;43.20;;;;;;5014479;28;20686;-72
2023/09/29 06:56:28;;;;;;;4.83;3.23;;;27.60;44.70;;;;;;5015030;28;20192;-70
2023/09/29 06:58:56;;;;;;;4.23;3.70;;;27.00;46.70;;;;;;5013574;28;20186;-71
2023/09/29 07:01:26;;;;;;;4.70;3.30;;;26.60;47.00;;;;;;5015071;28;20177;-69
2023/09/29 07:03:53;;;;;;;6.23;3.87;;;26.80;46.50;;;;;;5014063;28;20238;-68
2023/09/29 07:06:24;;;;;;;7.10;4.13;;;27.10;47.40;;;;;;5012316;28;20264;-69
2023/09/29 07:08:52;;;;;;;10.13;4.60;;;26.90;50.10;;;;;;5012008;28;20201;-70
2023/09/29 07:11:19;;;;;;;5.40;4.03;;;26.50;51.10;;;;;;5009521;28;20284;-70
2023/09/29 07:13:47;;;;;;;7.37;4.60;;;26.30;52.60;;;;;;5010425;28;20291;-71
2023/09/29 07:16:17;;;;;;;8.73;3.97;;;26.30;51.60;;;;;;5013693;28;20204;-70
2023/09/29 07:18:44;;;;;;;6.13;4.30;;;25.80;52.50;;;;;;5012897;28;20193;-70
2023/09/29 07:21:12;;;;;;;11.53;4.10;;;26.00;52.50;;;;;;5013452;28;20223;-69
2023/09/29 07:23:39;;;;;;;5.50;3.80;;;25.50;53.50;;;;;;5021515;28;20228;-69
2023/09/29 07:26:06;;;;;;;6.37;3.60;;;24.70;54.80;;;;;;5013318;28;20544;-71
2023/09/29 07:28:34;;;;;;;4.87;3.57;;;23.80;54.60;;;;;;5000772;28;20181;-70
2023/09/29 07:31:01;;;;;;;5.00;3.30;;;23.70;54.50;;;;;;5012784;28;20658;-70
2023/09/29 07:33:28;;;;;;;9.10;4.07;;;23.40;56.40;;;;;;5013110;28;20288;-70
2023/09/29 07:35:56;;;;;;;5.17;3.97;;;23.40;56.50;;;;;;5014144;28;20200;-70
2023/09/29 07:38:23;;;;;;;11.63;3.83;;;23.30;57.10;;;;;;5014258;28;20623;-70
2023/09/29 07:40:51;;;;;;;6.63;4.30;;;23.20;57.80;;;;;;5018097;28;20180;-70
2023/09/29 07:43:18;;;;;;;7.63;4.43;;;23.10;57.40;;;;;;5025685;28;20173;-69
2023/09/29 07:45:46;;;;;;;7.47;3.80;;;23.00;57.50;;;;;;5014455;28;20178;-71
2023/09/29 07:48:14;;;;;;;6.70;3.80;;;23.00;57.90;;;;;;5017536;28;20552;-71
2023/09/29 07:50:42;;;;;;;8.20;3.93;;;23.00;57.70;;;;;;5017420;28;20675;-70
2023/09/29 07:53:11;;;;;;;4.20;3.80;;;22.70;58.90;;;;;;4997541;28;20598;-70
2023/09/29 07:55:38;;;;;;;11.60;4.03;;;22.50;60.10;;;;;;5010198;28;20194;-71
2023/09/29 07:58:06;;;;;;;6.40;3.90;;;22.40;60.20;;;;;;5010275;28;20264;-69
2023/09/29 08:00:33;;;;;;;5.57;3.70;;;22.40;60.10;;;;;;5013242;28;20244;-70
2023/09/29 08:03:00;;;;;;;8.17;3.93;;;22.30;59.70;;;;;;5011236;28;20286;-69
2023/09/29 08:05:28;;;;;;;6.87;3.97;;;22.20;59.40;;;;;;5017882;28;20181;-70
2023/09/29 08:07:55;;;;;;;6.93;3.80;;;22.10;59.90;;;;;;5011678;28;20260;-70
2023/09/29 08:10:22;;;;;;;7.43;3.83;;;22.20;59.50;;;;;;5013399;28;20185;-70
2023/09/29 08:12:52;;;;;;;8.20;4.13;;;22.10;59.60;;;;;;5011481;28;20232;-69
2023/09/29 08:15:21;;;;;;;5.77;4.20;;;22.00;59.30;;;;;;5014344;28;20680;-69
2023/09/29 08:17:49;;;;;;;15.57;11.47;;;21.90;58.60;;;;;;5012636;28;20321;-70
2023/09/29 08:20:18;;;;;;;14.47;12.47;;;21.80;58.30;;;;;;5007554;28;20247;-69
2023/09/29 08:22:46;;;;;;;9.57;6.33;;;21.70;58.20;;;;;;5009820;28;20216;-71
2023/09/29 08:25:14;;;;;;;7.57;4.37;;;21.80;57.80;;;;;;5010511;28;20197;-72
2023/09/29 08:27:42;;;;;;;6.00;3.40;;;21.80;57.60;;;;;;5010405;28;20174;-70
2023/09/29 08:30:10;;;;;;;5.80;3.80;;;21.60;58.00;;;;;;5011175;28;20192;-72
2023/09/29 08:32:39;;;;;;;6.40;3.70;;;21.50;58.40;;;;;;5009988;28;20212;-70
2023/09/29 08:35:06;;;;;;;5.30;3.60;;;21.40;58.30;;;;;;5008260;28;20185;-70
2023/09/29 08:37:34;;;;;;;5.83;3.73;;;21.30;58.30;;;;;;5011969;28;20191;-71
2023/09/29 08:40:01;;;;;;;6.00;4.00;;;21.20;58.70;;;;;;5012499;28;20188;-70
2023/09/29 08:42:36;;;;;;;7.00;3.93;;;21.20;58.80;;;;;;5012857;28;20227;-70
2023/09/29 08:45:09;;;;;;;6.43;4.20;;;21.20;58.70;;;;;;5011797;28;20181;-71
2023/09/29 08:47:38;;;;;;;7.73;4.37;;;21.20;59.60;;;;;;5011863;28;20671;-73
2023/09/29 08:50:06;;;;;;;7.93;4.60;;;21.20;60.00;;;;;;5010871;28;20565;-72
2023/09/29 08:52:35;;;;;;;8.30;4.90;;;21.10;60.10;;;;;;5010760;28;20201;-71
2023/09/29 08:55:06;;;;;;;8.03;4.37;;;20.90;60.80;;;;;;5012943;28;20200;-69
2023/09/29 08:57:35;;;;;;;11.40;5.13;;;20.90;62.10;;;;;;5011030;28;20542;-71
2023/09/29 09:00:06;;;;;;;7.33;5.23;;;20.80;63.40;;;;;;5008892;28;20181;-69
2023/09/29 09:02:33;;;;;;;11.40;5.70;;;20.80;64.50;;;;;;5021330;28;20251;-71
2023/09/29 09:05:00;;;;;;;10.53;5.40;;;20.90;66.40;;;;;;5010376;28;20272;-71
2023/09/29 09:07:28;;;;;;;11.03;6.30;;;20.90;68.50;;;;;;5010588;28;20192;-69
2023/09/29 09:09:57;;;;;;;13.10;6.37;;;20.90;70.00;;;;;;5012282;28;20239;-70
2023/09/29 09:12:43;;;;;;;10.87;6.13;;;20.80;71.00;;;;;;5012577;28;20201;-74
2023/09/29 09:15:12;;;;;;;13.70;6.77;;;20.70;71.60;;;;;;5012805;28;20181;-74
2023/09/29 09:17:40;;;;;;;11.00;5.70;;;20.60;71.90;;;;;;5009589;28;20517;-76
2023/09/29 09:20:09;;;;;;;10.90;6.40;;;20.50;72.10;;;;;;5009588;28;20188;-75
2023/09/29 09:22:38;;;;;;;10.10;6.13;;;20.40;72.60;;;;;;5009495;28;20237;-76
2023/09/29 09:25:08;;;;;;;11.07;6.30;;;20.50;73.80;;;;;;5011493;28;20185;-74
2023/09/29 09:27:39;;;;;;;7.77;5.80;;;20.40;73.90;;;;;;5010845;28;20280;-71
2023/09/29 09:30:21;;;;;;;9.90;6.40;;;20.30;74.20;;;;;;5010432;28;20319;-74
2023/09/29 09:32:49;;;;;;;10.77;6.77;;;20.30;74.80;;;;;;5007736;28;20205;-72
2023/09/29 09:35:27;;;;;;;11.80;7.07;;;20.30;74.60;;;;;;5004132;28;20204;-75
2023/09/29 09:37:55;;;;;;;14.50;7.07;;;20.10;73.60;;;;;;5011380;28;20181;-75
2023/09/29 09:40:26;;;;;;;14.90;7.93;;;20.10;74.60;;;;;;5011361;28;20193;-75
2023/09/29 09:43:02;;;;;;;17.83;8.67;;;20.00;74.50;;;;;;5010963;28;20217;-73
2023/09/29 09:45:42;;;;;;;15.90;7.80;;;19.90;74.70;;;;;;5011672;28;20224;-71
2023/09/29 09:48:15;;;;;;;15.53;7.60;;;19.80;74.70;;;;;;5011355;28;20200;-74
2023/09/29 09:50:47;;;;;;;14.07;6.80;;;19.70;74.20;;;;;;5011495;28;20188;-77
2023/09/29 09:53:16;;;;;;;12.50;7.13;;;19.60;73.10;;;;;;5009786;28;20717;-76
2023/09/29 09:56:19;;;;;;;15.13;7.43;;;19.50;72.70;;;;;;5011844;28;20193;-75
2023/09/29 09:58:49;;;;;;;12.10;7.10;;;19.50;72.70;;;;;;5008888;28;20239;-74
2023/09/29 10:01:16;;;;;;;10.87;7.43;;;19.50;72.60;;;;;;5008828;28;20244;-73
2023/09/29 10:03:44;;;;;;;10.97;7.23;;;19.50;72.80;;;;;;5009376;28;20192;-76
2023/09/29 10:06:11;;;;;;;11.50;7.00;;;19.50;73.40;;;;;;5010432;28;20186;-74
2023/09/29 10:08:39;;;;;;;12.47;7.37;;;19.50;73.40;;;;;;5012601;28;20611;-76
2023/09/29 10:11:14;;;;;;;13.53;6.87;;;19.50;73.90;;;;;;5009546;28;20264;-74
2023/09/29 10:13:44;;;;;;;12.33;7.00;;;19.50;74.10;;;;;;5010001;28;20212;-75
2023/09/29 10:16:26;;;;;;;11.47;6.60;;;19.40;74.50;;;;;;5006961;28;20177;-75
2023/09/29 10:19:05;;;;;;;11.77;6.70;;;19.40;74.80;;;;;;5011174;28;20173;-76
2023/09/29 10:22:02;;;;;;;14.07;6.63;;;19.40;75.10;;;;;;5013577;28;20196;-77
2023/09/29 10:24:29;;;;;;;12.43;7.17;;;19.40;75.50;;;;;;5004111;28;20715;-75
2023/09/29 10:27:04;;;;;;;13.60;7.77;;;19.30;75.60;;;;;;5013849;28;20636;-75
2023/09/29 10:29:38;;;;;;;14.23;7.53;;;19.30;75.80;;;;;;5012122;28;20176;-74
2023/09/29 10:32:20;;;;;;;19.53;9.03;;;19.20;76.00;;;;;;5011492;28;20654;-72
2023/09/29 10:34:49;;;;;;;17.37;9.53;;;19.20;76.20;;;;;;5015020;28;20255;-73
2023/09/29 10:37:19;;;;;;;15.77;9.83;;;19.20;76.20;;;;;;5015349;28;20190;-75
2023/09/29 10:39:48;;;;;;;20.37;9.33;;;19.00;76.20;;;;;;5012289;28;20212;-72
2023/09/29 10:42:15;;;;;;;14.13;8.60;;;19.00;76.40;;;;;;5013311;28;20188;-71
2023/09/29 10:44:47;;;;;;;18.97;9.47;;;19.00;76.40;;;;;;5015130;28;20177;-74
2023/09/29 10:47:16;;;;;;;14.67;8.87;;;18.90;76.40;;;;;;5013115;28;20185;-71
2023/09/29 10:49:46;;;;;;;17.37;9.10;;;18.90;76.70;;;;;;5015203;28;20685;-73
2023/09/29 10:52:22;;;;;;;19.10;8.57;;;18.80;77.00;;;;;;5013599;28;20186;-73
2023/09/29 10:54:56;;;;;;;16.63;8.97;;;18.80;77.30;;;;;;5015215;28;20227;-71
2023/09/29 10:57:25;;;;;;;19.53;8.70;;;18.90;77.70;;;;;;5012311;28;20199;-70
2023/09/29 10:59:59;;;;;;;20.40;9.07;;;18.80;77.90;;;;;;5015297;28;20244;-72
2023/09/29 11:02:36;;;;;;;16.67;9.17;;;18.80;78.50;;;;;;5012774;28;20273;-74
2023/09/29 11:05:09;;;;;;;16.63;9.33;;;18.80;78.50;;;;;;5006897;28;20191;-73
2023/09/29 11:07:50;;;;;;;15.97;8.93;;;18.70;78.30;;;;;;5008825;28;20173;-72
2023/09/29 11:10:21;;;;;;;20.03;9.33;;;18.60;78.50;;;;;;5013976;28;20189;-71
2023/09/29 11:12:49;;;;;;;19.63;10.27;;;18.50;78.40;;;;;;5010965;28;20207;-70
2023/09/29 11:15:18;;;;;;;16.77;10.57;;;18.50;78.50;;;;;;5012002;28;20208;-72
2023/09/29 11:17:47;;;;;;;19.20;10.77;;;18.50;78.60;;;;;;5013423;28;20227;-71
2023/09/29 11:20:27;;;;;;;21.10;10.17;;;18.40;79.00;;;;;;5014023;28;20177;-71
2023/09/29 11:23:11;;;;;;;23.60;11.53;;;18.40;78.90;;;;;;5010168;28;20593;-73
2023/09/29 11:25:49;;;;;;;21.90;10.80;;;18.40;79.30;;;;;;5011593;28;20243;-71
2023/09/29 11:28:17;;;;;;;18.67;10.43;;;18.40;79.60;;;;;;5006929;28;20185;-69
2023/09/29 11:30:45;;;;;;;20.67;10.73;;;18.30;79.80;;;;;;5012419;28;20217;-69
2023/09/29 11:33:14;;;;;;;24.30;10.53;;;18.30;79.90;;;;;;5012573;28;20213;-71
2023/09/29 11:35:45;;;;;;;18.37;11.50;;;18.30;80.10;;;;;;5013945;28;20178;-70
2023/09/29 11:38:19;;;;;;;20.13;11.80;;;18.30;80.30;;;;;;5013411;28;20671;-71
2023/09/29 11:40:51;;;;;;;18.37;12.13;;;18.20;80.60;;;;;;5014078;28;20663;-73
2023/09/29 11:43:21;;;;;;;17.83;11.07;;;18.10;80.60;;;;;;5013005;28;20292;-71
2023/09/29 11:45:49;;;;;;;16.93;11.07;;;18.10;81.00;;;;;;5014619;28;20632;-72
2023/09/29 11:48:16;;;;;;;19.00;11.70;;;18.00;81.40;;;;;;5014310;28;20177;-73
2023/09/29 11:50:43;;;;;;;25.10;11.73;;;18.10;81.80;;;;;;5014520;28;20574;-74
2023/09/29 11:53:11;;;;;;;25.47;12.23;;;18.10;82.20;;;;;;5012792;28;20226;-71
2023/09/29 11:55:38;;;;;;;21.20;11.07;;;18.10;82.30;;;;;;5008951;28;20205;-72
2023/09/29 11:58:07;;;;;;;17.23;10.37;;;18.00;82.20;;;;;;5011402;28;20189;-71
2023/09/29 12:00:41;;;;;;;16.93;10.40;;;17.90;82.20;;;;;;5005835;28;20185;-71
2023/09/29 12:03:12;;;;;;;19.53;10.67;;;17.80;82.20;;;;;;5011642;28;20189;-73
2023/09/29 12:05:45;;;;;;;23.77;13.20;;;17.80;82.70;;;;;;5011972;28;20624;-72
2023/09/29 12:08:13;;;;;;;20.53;14.17;;;17.80;83.00;;;;;;5013057;28;20683;-71
2023/09/29 12:10:40;;;;;;;26.20;14.33;;;17.90;83.20;;;;;;5013630;28;20220;-72
2023/09/29 12:13:08;;;;;;;27.67;14.73;;;17.90;83.50;;;;;;5012494;28;20220;-71
2023/09/29 12:15:35;;;;;;;22.87;13.83;;;17.90;83.60;;;;;;5012275;28;20185;-72
2023/09/29 12:18:03;;;;;;;21.33;13.50;;;17.90;83.60;;;;;;5011789;28;20192;-72
2023/09/29 12:20:30;;;;;;;21.63;13.17;;;17.80;83.70;;;;;;5013141;28;20219;-70
2023/09/29 12:23:00;;;;;;;20.67;12.07;;;17.80;83.80;;;;;;5013009;28;20254;-69
2023/09/29 12:25:28;;;;;;;20.23;12.67;;;17.80;83.70;;;;;;5013640;28;20537;-71
2023/09/29 12:27:55;;;;;;;20.93;13.90;;;17.70;83.90;;;;;;5012806;28;20181;-70
2023/09/29 12:30:22;;;;;;;26.87;15.00;;;17.70;84.20;;;;;;5013191;28;20230;-72
2023/09/29 12:32:54;;;;;;;22.60;15.10;;;17.70;84.40;;;;;;5024567;28;20211;-70
2023/09/29 12:35:22;;;;;;;25.80;14.57;;;17.70;84.90;;;;;;5011323;28;20189;-73
2023/09/29 12:37:49;;;;;;;27.00;14.03;;;17.80;85.10;;;;;;5010212;28;20200;-70
2023/09/29 12:40:17;;;;;;;21.40;12.73;;;17.70;84.90;;;;;;5010745;28;20543;-71
2023/09/29 12:42:51;;;;;;;21.47;13.23;;;17.60;84.70;;;;;;5011379;28;20185;-72
2023/09/29 12:45:23;;;;;;;17.23;11.30;;;17.50;85.10;;;;;;5013065;28;20585;-73
2023/09/29 12:47:59;;;;;;;22.10;12.97;;;17.60;85.00;;;;;;5012675;28;20188;-72
2023/09/29 12:50:27;;;;;;;18.53;13.30;;;17.50;85.10;;;;;;5012416;28;20536;-71
2023/09/29 12:52:55;;;;;;;24.70;13.03;;;17.50;84.90;;;;;;5011933;28;20212;-71
2023/09/29 12:55:22;;;;;;;22.40;11.97;;;17.40;85.10;;;;;;5009919;28;20185;-71
2023/09/29 12:57:52;;;;;;;23.30;12.53;;;17.40;85.50;;;;;;5010286;28;20208;-72
2023/09/29 13:00:19;;;;;;;19.40;13.93;;;17.40;85.80;;;;;;5012058;28;20208;-70